createdAt,value
2016-04-20T08:26:57.594Z,0.1
2016-04-20T08:27:07.828Z,0
2016-04-20T08:27:17.813Z,0.2
2016-04-20T08:27:27.813Z,0
2016-04-20T08:27:37.828Z,0
2016-04-20T08:27:47.831Z,0
2016-04-20T08:27:57.831Z,0
2016-04-20T08:28:07.831Z,0.2
2016-04-20T08:28:17.831Z,0.1
2016-04-20T08:28:27.831Z,0
2016-04-20T08:28:37.831Z,0
2016-04-20T08:28:47.833Z,0
2016-04-20T08:28:57.833Z,0
2016-04-20T08:29:07.833Z,0
2016-04-20T08:29:17.849Z,0
2016-04-20T08:29:27.849Z,0
2016-04-20T08:29:37.849Z,0
2016-04-20T08:29:47.852Z,0
2016-04-20T08:29:57.852Z,0
2016-04-20T08:30:07.852Z,0
2016-04-20T08:30:17.852Z,0
2016-04-20T08:30:27.852Z,0
2016-04-20T08:30:37.993Z,0
2016-04-20T08:30:47.855Z,0
2016-04-20T08:30:57.871Z,0
2016-04-20T08:31:07.871Z,0.1
2016-04-20T08:31:17.871Z,0.2
2016-04-20T08:31:27.714Z,0.4
2016-04-20T08:31:37.871Z,0.1
2016-04-20T08:31:47.873Z,0
2016-04-20T08:31:57.873Z,0.1
2016-04-20T08:32:07.873Z,0.3
2016-04-20T08:32:17.888Z,0.1
2016-04-20T08:32:27.873Z,0.1
2016-04-20T08:32:37.888Z,0.1
2016-04-20T08:32:47.891Z,0
2016-04-20T08:32:57.891Z,0
2016-04-20T08:33:07.891Z,0.2
2016-04-20T08:33:17.891Z,0.2
2016-04-20T08:33:27.891Z,0.2
2016-04-20T08:33:45.016Z,0.2
2016-04-20T08:33:49.754Z,0.1
2016-04-20T08:33:59.722Z,0
2016-04-20T08:34:09.629Z,0
2016-04-20T08:34:20.832Z,0
2016-04-20T08:34:29.722Z,0
2016-04-20T08:34:39.879Z,0
2016-04-20T08:34:49.506Z,0
2016-04-20T08:34:59.693Z,0
2016-04-20T08:35:09.865Z,0
2016-04-20T08:35:19.740Z,0
2016-04-20T08:35:29.724Z,0
2016-04-20T08:35:39.724Z,0
2016-04-20T08:35:49.743Z,0
2016-04-20T08:35:59.727Z,0
2016-04-20T08:36:09.790Z,0.3
2016-04-20T08:36:19.743Z,0.2
2016-04-20T08:36:29.743Z,0
2016-04-20T08:36:39.743Z,0
2016-04-20T08:36:49.605Z,0
2016-04-20T08:36:59.746Z,0
2016-04-20T08:37:10.324Z,0
2016-04-20T08:37:19.762Z,0
2016-04-20T08:37:29.746Z,0
2016-04-20T08:37:39.762Z,0
2016-04-20T08:37:49.779Z,0
2016-04-20T08:37:59.764Z,0
2016-04-20T08:38:09.764Z,0
2016-04-20T08:38:19.764Z,0
2016-04-20T08:38:29.826Z,0
2016-04-20T08:38:39.764Z,0
2016-04-20T08:38:49.767Z,0
2016-04-20T08:38:59.798Z,0
2016-04-20T08:39:09.782Z,0
2016-04-20T08:39:19.626Z,0
2016-04-20T08:39:29.782Z,0
2016-04-20T08:39:39.798Z,0
2016-04-20T08:39:49.785Z,0
2016-04-20T08:39:59.785Z,0
2016-04-20T08:40:09.801Z,0
2016-04-20T08:40:19.801Z,0
2016-04-20T08:40:29.801Z,0
2016-04-20T08:40:39.801Z,0
2016-04-20T08:40:49.804Z,0
2016-04-20T08:40:59.804Z,0
2016-04-20T08:41:09.804Z,0
2016-04-20T08:41:19.804Z,0
2016-04-20T08:41:29.804Z,0
2016-04-20T08:41:39.819Z,0.2
2016-04-20T08:41:49.821Z,0
2016-04-20T08:41:59.821Z,0
2016-04-20T08:42:09.821Z,0
2016-04-20T08:42:19.821Z,0
2016-04-20T08:42:29.931Z,0
2016-04-20T08:42:39.821Z,0
2016-04-20T08:42:49.824Z,0
2016-04-20T08:42:59.824Z,0
2016-04-20T08:43:09.824Z,0
2016-04-20T08:43:19.824Z,0
2016-04-20T08:43:29.840Z,0.2
2016-04-20T08:43:39.840Z,0.1
2016-04-20T08:43:49.843Z,0
2016-04-20T08:43:59.843Z,0
2016-04-20T08:44:09.843Z,0
2016-04-20T08:44:19.718Z,0
2016-04-20T08:44:29.843Z,0
2016-04-20T08:44:39.843Z,0
2016-04-20T08:44:49.862Z,0
2016-04-20T08:44:59.862Z,0
2016-04-20T08:45:09.862Z,0
2016-04-20T08:45:19.862Z,0
2016-04-20T08:45:29.862Z,0
2016-04-20T08:45:39.862Z,0
2016-04-20T08:45:49.864Z,0
2016-04-20T08:45:59.864Z,0
2016-04-20T08:46:09.879Z,0
2016-04-20T08:46:19.879Z,0
2016-04-20T08:46:29.879Z,0
2016-04-20T08:46:39.879Z,0.2
2016-04-20T08:46:49.882Z,0
2016-04-20T08:46:59.882Z,0
2016-04-20T08:47:09.882Z,0
2016-04-20T08:47:19.882Z,0
2016-04-20T08:47:29.882Z,0
2016-04-20T08:47:39.898Z,0
2016-04-20T08:47:49.901Z,0
2016-04-20T08:47:59.901Z,0
2016-04-20T08:48:09.901Z,0
2016-04-20T08:48:19.901Z,0
2016-04-20T08:48:29.901Z,0.1
2016-04-20T08:48:39.901Z,0
2016-04-20T08:48:49.904Z,0
2016-04-20T08:48:59.904Z,0
2016-04-20T08:49:09.920Z,0
2016-04-20T08:49:19.951Z,0
2016-04-20T08:49:29.935Z,0
2016-04-20T08:49:39.951Z,0
2016-04-20T08:49:49.953Z,0
2016-04-20T08:49:59.922Z,0
2016-04-20T08:50:09.922Z,0.1
2016-04-20T08:50:19.922Z,0
2016-04-20T08:50:29.937Z,0
2016-04-20T08:50:39.922Z,0
2016-04-20T08:50:49.940Z,0
2016-04-20T08:50:59.940Z,0
2016-04-20T08:51:09.940Z,0
2016-04-20T08:51:19.940Z,0
2016-04-20T08:51:29.940Z,0
2016-04-20T08:51:39.940Z,0
2016-04-20T08:51:49.942Z,0
2016-04-20T08:51:59.958Z,0
2016-04-20T08:52:09.942Z,0
2016-04-20T08:52:19.942Z,0
2016-04-20T08:52:29.958Z,0
2016-04-20T08:52:39.958Z,0
2016-04-20T08:52:49.961Z,0
2016-04-20T08:52:59.961Z,0
2016-04-20T08:53:09.961Z,0
2016-04-20T08:53:19.976Z,0
2016-04-20T08:53:29.976Z,0
2016-04-20T08:53:39.976Z,0.2
2016-04-20T08:53:49.964Z,0
2016-04-20T08:53:59.979Z,0
2016-04-20T08:54:09.979Z,0
2016-04-20T08:54:19.995Z,0.2
2016-04-20T08:54:29.995Z,0.1
2016-04-20T08:54:39.979Z,0
2016-04-20T08:54:49.981Z,0
2016-04-20T08:55:00.044Z,0
2016-04-20T08:55:09.231Z,0
2016-04-20T08:55:19.997Z,0.1
2016-04-20T08:55:29.981Z,0
2016-04-20T08:55:39.997Z,0
2016-04-20T08:55:50.000Z,0
2016-04-20T08:56:00.000Z,0
2016-04-20T08:56:10.000Z,0
2016-04-20T08:56:20.016Z,0.2
2016-04-20T08:56:30.016Z,0.1
2016-04-20T08:56:40.016Z,0
2016-04-20T08:56:50.018Z,0
2016-04-20T08:57:00.018Z,0
2016-04-20T08:57:10.018Z,0
2016-04-20T08:57:20.002Z,0
2016-04-20T08:57:30.018Z,0
2016-04-20T08:57:40.018Z,0
2016-04-20T08:57:50.037Z,0
2016-04-20T08:58:00.022Z,0
2016-04-20T08:58:10.037Z,0
2016-04-20T08:58:20.022Z,0
2016-04-20T08:58:30.037Z,0
2016-04-20T08:58:40.037Z,0
2016-04-20T08:58:50.039Z,0
2016-04-20T08:59:00.039Z,0
2016-04-20T08:59:10.039Z,0
2016-04-20T08:59:20.039Z,0.2
2016-04-20T08:59:30.055Z,0
2016-04-20T08:59:40.039Z,0
2016-04-20T08:59:50.058Z,0
2016-04-20T09:00:00.058Z,0
2016-04-20T09:00:10.058Z,0
2016-04-20T09:00:20.058Z,0
2016-04-20T09:00:30.058Z,0
2016-04-20T09:00:40.058Z,0.2
2016-04-20T09:00:50.077Z,0.1
2016-04-20T09:00:59.905Z,0
2016-04-20T09:01:10.061Z,0
2016-04-20T09:01:20.077Z,0
2016-04-20T09:01:30.077Z,0
2016-04-20T09:01:40.077Z,0
2016-04-20T09:01:50.079Z,0
2016-04-20T09:02:00.079Z,0.1
2016-04-20T09:02:10.079Z,0
2016-04-20T09:02:20.079Z,0
2016-04-20T09:02:30.079Z,0
2016-04-20T09:02:40.094Z,0
2016-04-20T09:02:49.941Z,0
2016-04-20T09:03:00.097Z,0
2016-04-20T09:03:10.097Z,0
2016-04-20T09:03:20.097Z,0
2016-04-20T09:03:30.113Z,0
2016-04-20T09:03:40.113Z,0
2016-04-20T09:03:50.130Z,0
2016-04-20T09:04:00.115Z,0
2016-04-20T09:04:10.099Z,0
2016-04-20T09:04:20.115Z,0
2016-04-20T09:04:30.115Z,0
2016-04-20T09:04:40.240Z,0
2016-04-20T09:04:50.274Z,0
2016-04-20T09:05:00.118Z,0
2016-04-20T09:05:10.149Z,0
2016-04-20T09:05:20.118Z,0
2016-04-20T09:05:30.133Z,0
2016-04-20T09:05:40.149Z,0
2016-04-20T09:05:50.135Z,0
2016-04-20T09:06:00.135Z,0
2016-04-20T09:06:10.135Z,0
2016-04-20T09:06:20.135Z,0
2016-04-20T09:06:30.135Z,0
2016-04-20T09:06:40.151Z,0
2016-04-20T09:06:50.139Z,0
2016-04-20T09:07:00.155Z,0
2016-04-20T09:07:10.155Z,0
2016-04-20T09:07:20.155Z,0
2016-04-20T09:07:30.155Z,0
2016-04-20T09:07:40.171Z,0
2016-04-20T09:07:50.157Z,0
2016-04-20T09:08:00.157Z,0
2016-04-20T09:08:10.157Z,0
2016-04-20T09:08:20.173Z,0.1
2016-04-20T09:08:30.173Z,0
2016-04-20T09:08:40.173Z,0
2016-04-20T09:08:50.176Z,0
2016-04-20T09:09:00.019Z,0
2016-04-20T09:09:10.176Z,0
2016-04-20T09:09:20.035Z,0
2016-04-20T09:09:30.176Z,0
2016-04-20T09:09:40.176Z,0
2016-04-20T09:09:50.194Z,0
2016-04-20T09:10:00.194Z,0
2016-04-20T09:10:10.194Z,0
2016-04-20T09:10:20.194Z,0
2016-04-20T09:10:30.194Z,0
2016-04-20T09:10:40.194Z,0
2016-04-20T09:10:50.213Z,0
2016-04-20T09:11:00.197Z,0
2016-04-20T09:11:10.213Z,0
2016-04-20T09:11:20.213Z,0
2016-04-20T09:11:30.213Z,0.2
2016-04-20T09:11:40.229Z,0.1
2016-04-20T09:11:50.215Z,0
2016-04-20T09:12:00.231Z,0
2016-04-20T09:12:10.215Z,0
2016-04-20T09:12:20.231Z,0
2016-04-20T09:12:30.231Z,0
2016-04-20T09:12:40.246Z,0
2016-04-20T09:12:50.234Z,0
2016-04-20T09:13:00.093Z,0
2016-04-20T09:13:10.234Z,0
2016-04-20T09:13:20.234Z,0
2016-04-20T09:13:30.234Z,0
2016-04-20T09:13:40.780Z,0
2016-04-20T09:13:50.315Z,0
2016-04-20T09:14:00.252Z,0
2016-04-20T09:14:10.252Z,0
2016-04-20T09:14:20.252Z,0
2016-04-20T09:14:30.252Z,0
2016-04-20T09:14:40.252Z,0
2016-04-20T09:14:50.301Z,0
2016-04-20T09:15:00.270Z,0
2016-04-20T09:15:10.254Z,0
2016-04-20T09:15:20.270Z,0
2016-04-20T09:15:30.270Z,0
2016-04-20T09:15:40.317Z,0
2016-04-20T09:15:50.288Z,0
2016-04-20T09:16:00.273Z,0
2016-04-20T09:16:10.273Z,0
2016-04-20T09:16:20.288Z,0
2016-04-20T09:16:30.273Z,0
2016-04-20T09:16:40.273Z,0
2016-04-20T09:16:50.290Z,0
2016-04-20T09:17:00.306Z,0
2016-04-20T09:17:10.290Z,0
2016-04-20T09:17:20.290Z,0.6
2016-04-20T09:17:30.290Z,0.7
2016-04-20T09:17:40.290Z,0.6
2016-04-20T09:17:50.309Z,0.3
2016-04-20T09:18:00.309Z,0.3
2016-04-20T09:18:10.309Z,0.3
2016-04-20T09:18:20.309Z,0.1
2016-04-20T09:18:30.309Z,0
2016-04-20T09:18:40.309Z,0
2016-04-20T09:18:50.312Z,0
2016-04-20T09:19:00.312Z,0
2016-04-20T09:19:10.328Z,0
2016-04-20T09:19:20.328Z,0
2016-04-20T09:19:30.328Z,0
2016-04-20T09:19:40.343Z,0
2016-04-20T09:19:50.237Z,0
2016-04-20T09:20:00.393Z,0
2016-04-20T09:20:10.346Z,0
2016-04-20T09:20:20.346Z,0
2016-04-20T09:20:30.346Z,0
2016-04-20T09:20:40.346Z,0
2016-04-20T09:20:50.442Z,0
2016-04-20T09:21:00.348Z,0
2016-04-20T09:21:10.348Z,0.1
2016-04-20T09:21:20.364Z,0.1
2016-04-20T09:21:30.833Z,0.2
2016-04-20T09:21:40.208Z,0.2
2016-04-20T09:21:50.373Z,0.7
2016-04-20T09:22:00.377Z,0.3
2016-04-20T09:22:10.064Z,0.1
2016-04-20T09:22:20.377Z,0
2016-04-20T09:22:30.303Z,0
2016-04-20T09:22:40.569Z,0
2016-04-20T09:22:50.400Z,0
2016-04-20T09:22:59.619Z,0
2016-04-20T09:23:10.385Z,0
2016-04-20T09:23:20.385Z,0.1
2016-04-20T09:23:30.400Z,0.3
2016-04-20T09:23:40.400Z,0
2016-04-20T09:23:50.419Z,0
2016-04-20T09:24:00.388Z,0
2016-04-20T09:24:10.403Z,0
2016-04-20T09:24:20.403Z,0
2016-04-20T09:24:30.403Z,0
2016-04-20T09:24:40.403Z,0
2016-04-20T09:24:50.405Z,0
2016-04-20T09:25:00.405Z,0.1
2016-04-20T09:25:10.421Z,0.4
2016-04-20T09:25:20.405Z,0.4
2016-04-20T09:25:30.421Z,0.4
2016-04-20T09:25:40.421Z,1
2016-04-20T09:25:50.424Z,0.6
2016-04-20T09:26:00.424Z,1.1
2016-04-20T09:26:10.424Z,0.5
2016-04-20T09:26:20.268Z,0.1
2016-04-20T09:26:30.439Z,0
2016-04-20T09:26:40.424Z,1
2016-04-20T09:26:50.441Z,0.3
2016-04-20T09:27:00.441Z,0
2016-04-20T09:27:10.441Z,0
2016-04-20T09:27:20.441Z,0
2016-04-20T09:27:30.441Z,0.3
2016-04-20T09:27:40.441Z,0
2016-04-20T09:27:50.444Z,0
2016-04-20T09:28:00.444Z,0.3
2016-04-20T09:28:10.460Z,0.1
2016-04-20T09:28:20.460Z,0
2016-04-20T09:28:30.460Z,0.1
2016-04-20T09:28:40.460Z,0.1
2016-04-20T09:28:52.213Z,0
2016-04-20T09:29:00.463Z,0
2016-04-20T09:29:10.463Z,0
2016-04-20T09:29:20.463Z,0.2
2016-04-20T09:29:30.479Z,0
2016-04-20T09:29:40.463Z,0
2016-04-20T09:29:50.482Z,0
2016-04-20T09:30:00.482Z,0
2016-04-20T09:30:10.497Z,0.1
2016-04-20T09:30:20.482Z,0
2016-04-20T09:30:30.482Z,0
2016-04-20T09:30:40.482Z,0.1
2016-04-20T09:30:50.484Z,0
2016-04-20T09:31:00.499Z,0
2016-04-20T09:31:10.499Z,0
2016-04-20T09:31:20.499Z,0
2016-04-20T09:31:30.499Z,0
2016-04-20T09:31:40.515Z,0.4
2016-04-20T09:31:50.502Z,0.2
2016-04-20T09:32:00.502Z,0
2016-04-20T09:32:10.502Z,0.2
2016-04-20T09:32:20.518Z,0.2
2016-04-20T09:32:30.518Z,0.1
2016-04-20T09:32:40.534Z,0
2016-04-20T09:32:50.520Z,0
2016-04-20T09:33:00.520Z,0
2016-04-20T09:33:10.536Z,0.2
2016-04-20T09:33:20.520Z,0.6
2016-04-20T09:33:30.536Z,0.4
2016-04-20T09:33:40.520Z,0.1
2016-04-20T09:33:50.539Z,0.1
2016-04-20T09:34:00.539Z,0.7
2016-04-20T09:34:10.539Z,0.4
2016-04-20T09:34:20.539Z,0.5
2016-04-20T09:34:30.539Z,0.4
2016-04-20T09:34:40.539Z,0.3
2016-04-20T09:34:50.292Z,0
2016-04-20T09:35:00.417Z,0
2016-04-20T09:35:10.557Z,0.1
2016-04-20T09:35:20.557Z,0
2016-04-20T09:35:30.557Z,0
2016-04-20T09:35:40.573Z,0
2016-04-20T09:35:50.559Z,0
2016-04-20T09:36:00.559Z,0
2016-04-20T09:36:10.559Z,0
2016-04-20T09:36:20.575Z,0
2016-04-20T09:36:30.559Z,0.3
2016-04-20T09:36:40.575Z,0.2
2016-04-20T09:36:50.578Z,0
2016-04-20T09:37:00.578Z,0.2
2016-04-20T09:37:10.578Z,0.3
2016-04-20T09:37:20.578Z,0.5
2016-04-20T09:37:30.578Z,0.2
2016-04-20T09:37:40.578Z,0
2016-04-20T09:37:50.580Z,0
2016-04-20T09:38:00.595Z,0.3
2016-04-20T09:38:10.595Z,0.1
2016-04-20T09:38:20.595Z,0.2
2016-04-20T09:38:30.595Z,0.1
2016-04-20T09:38:40.595Z,0
2016-04-20T09:38:50.443Z,0
2016-04-20T09:39:00.615Z,0
2016-04-20T09:39:10.615Z,0
2016-04-20T09:39:20.615Z,0
2016-04-20T09:39:30.615Z,0
2016-04-20T09:39:40.615Z,0
2016-04-20T09:39:50.617Z,0
2016-04-20T09:40:00.617Z,0
2016-04-20T09:40:10.617Z,0.2
2016-04-20T09:40:20.617Z,0.2
2016-04-20T09:40:30.617Z,0
2016-04-20T09:40:40.633Z,0
2016-04-20T09:40:50.636Z,0
2016-04-20T09:41:00.636Z,0
2016-04-20T09:41:10.636Z,0
2016-04-20T09:41:20.636Z,0
2016-04-20T09:41:30.636Z,0
2016-04-20T09:41:40.651Z,0
2016-04-20T09:41:50.639Z,0.1
2016-04-20T09:42:00.639Z,0
2016-04-20T09:42:10.654Z,0
2016-04-20T09:42:20.654Z,0
2016-04-20T09:42:30.654Z,0
2016-04-20T09:42:40.654Z,0
2016-04-20T09:42:50.656Z,0
2016-04-20T09:43:00.656Z,0
2016-04-20T09:43:10.656Z,0
2016-04-20T09:43:20.656Z,0
2016-04-20T09:43:30.672Z,0
2016-04-20T09:43:40.656Z,0
2016-04-20T09:43:50.675Z,0
2016-04-20T09:44:00.675Z,0
2016-04-20T09:44:10.675Z,0
2016-04-20T09:44:20.675Z,0
2016-04-20T09:44:30.675Z,0.2
2016-04-20T09:44:40.675Z,0.2
2016-04-20T09:44:50.677Z,0
2016-04-20T09:45:00.677Z,0.3
2016-04-20T09:45:10.693Z,0.7
2016-04-20T09:45:20.693Z,0.4
2016-04-20T09:45:30.693Z,0.2
2016-04-20T09:45:40.693Z,0.1
2016-04-20T09:45:50.696Z,0
2016-04-20T09:46:00.696Z,0
2016-04-20T09:46:10.711Z,0
2016-04-20T09:46:20.696Z,0
2016-04-20T09:46:30.696Z,0.7
2016-04-20T09:46:40.696Z,0.6
2016-04-20T09:46:50.714Z,0.4
2016-04-20T09:47:00.714Z,0.1
2016-04-20T09:47:10.714Z,0
2016-04-20T09:47:20.714Z,0
2016-04-20T09:47:30.714Z,0
2016-04-20T09:47:40.714Z,0
2016-04-20T09:47:50.717Z,0
2016-04-20T09:48:00.717Z,0
2016-04-20T09:48:10.717Z,0
2016-04-20T09:48:20.733Z,0
2016-04-20T09:48:30.733Z,0
2016-04-20T09:48:40.733Z,0
2016-04-20T09:48:50.580Z,0
2016-04-20T09:49:00.751Z,0
2016-04-20T09:49:10.751Z,0
2016-04-20T09:49:20.751Z,0
2016-04-20T09:49:30.767Z,0.3
2016-04-20T09:49:40.751Z,0.2
2016-04-20T09:49:50.847Z,0
2016-04-20T09:50:00.910Z,0.1
2016-04-20T09:50:10.753Z,0
2016-04-20T09:50:20.753Z,0
2016-04-20T09:50:30.753Z,0.1
2016-04-20T09:50:40.753Z,0
2016-04-20T09:50:50.756Z,0
2016-04-20T09:51:00.772Z,0
2016-04-20T09:51:10.772Z,0
2016-04-20T09:51:20.772Z,0
2016-04-20T09:51:30.772Z,0
2016-04-20T09:51:40.631Z,0
2016-04-20T09:51:50.774Z,0
2016-04-20T09:52:00.774Z,0
2016-04-20T09:52:10.774Z,0
2016-04-20T09:52:20.774Z,0
2016-04-20T09:52:30.790Z,0
2016-04-20T09:52:40.805Z,0
2016-04-20T09:52:50.793Z,0
2016-04-20T09:53:00.793Z,0.2
2016-04-20T09:53:10.793Z,0.1
2016-04-20T09:53:20.808Z,0
2016-04-20T09:53:30.793Z,0.3
2016-04-20T09:53:40.808Z,0
2016-04-20T09:53:50.811Z,0
2016-04-20T09:54:00.796Z,0
2016-04-20T09:54:10.843Z,0
2016-04-20T09:54:20.811Z,0
2016-04-20T09:54:30.811Z,0
2016-04-20T09:54:40.811Z,0
2016-04-20T09:54:50.830Z,0
2016-04-20T09:55:00.814Z,0
2016-04-20T09:55:10.814Z,0
2016-04-20T09:55:20.830Z,0
2016-04-20T09:55:30.830Z,0
2016-04-20T09:55:40.830Z,0
2016-04-20T09:55:50.832Z,0
2016-04-20T09:56:00.848Z,0.1
2016-04-20T09:56:10.832Z,0.2
2016-04-20T09:56:20.848Z,0.1
2016-04-20T09:56:30.848Z,0
2016-04-20T09:56:40.848Z,0
2016-04-20T09:56:50.851Z,0
2016-04-20T09:57:00.851Z,0
2016-04-20T09:57:10.851Z,0
2016-04-20T09:57:20.866Z,0
2016-04-20T09:57:30.851Z,0
2016-04-20T09:57:40.851Z,0
2016-04-20T09:57:50.854Z,0.1
2016-04-20T09:58:00.854Z,0
2016-04-20T09:58:10.885Z,0
2016-04-20T09:58:20.854Z,0
2016-04-20T09:58:30.869Z,0
2016-04-20T09:58:40.869Z,0
2016-04-20T09:58:50.871Z,0
2016-04-20T09:59:00.871Z,0
2016-04-20T09:59:10.871Z,0
2016-04-20T09:59:20.871Z,0
2016-04-20T09:59:30.871Z,0
2016-04-20T09:59:40.871Z,0
2016-04-20T09:59:50.890Z,0
2016-04-20T10:00:00.890Z,0
2016-04-20T10:00:10.890Z,0
2016-04-20T10:00:20.874Z,0
2016-04-20T10:00:30.890Z,0.1
2016-04-20T10:00:40.905Z,0
2016-04-20T10:00:51.673Z,0
2016-04-20T10:01:00.923Z,0
2016-04-20T10:01:10.892Z,0
2016-04-20T10:01:20.892Z,0
2016-04-20T10:01:30.907Z,0
2016-04-20T10:01:40.907Z,0
2016-04-20T10:01:50.910Z,0
2016-04-20T10:02:00.910Z,0
2016-04-20T10:02:10.910Z,0
2016-04-20T10:02:20.926Z,0
2016-04-20T10:02:30.910Z,0
2016-04-20T10:02:40.926Z,0
2016-04-20T10:02:50.945Z,0.1
2016-04-20T10:03:00.945Z,0.6
2016-04-20T10:03:10.929Z,0.7
2016-04-20T10:03:20.945Z,0.4
2016-04-20T10:03:30.929Z,0.3
2016-04-20T10:03:40.945Z,1.6
2016-04-20T10:03:50.931Z,1.1
2016-04-20T10:04:00.790Z,0.5
2016-04-20T10:04:10.790Z,0.1
2016-04-20T10:04:20.947Z,0
2016-04-20T10:04:30.962Z,0.2
2016-04-20T10:04:40.947Z,0.4
2016-04-20T10:04:50.965Z,0.1
2016-04-20T10:05:00.934Z,0.3
2016-04-20T10:05:10.950Z,0.1
2016-04-20T10:05:20.981Z,0.1
2016-04-20T10:05:30.965Z,0.2
2016-04-20T10:05:40.981Z,0
2016-04-20T10:05:50.968Z,0.3
2016-04-20T10:06:00.968Z,0
2016-04-20T10:06:11.218Z,0.2
2016-04-20T10:06:20.984Z,0.2
2016-04-20T10:06:31.000Z,0
2016-04-20T10:06:41.171Z,0.3
2016-04-20T10:06:50.986Z,0.6
2016-04-20T10:07:00.986Z,1.1
2016-04-20T10:07:10.970Z,0.6
2016-04-20T10:07:20.986Z,0.3
2016-04-20T10:07:31.002Z,0.3
2016-04-20T10:07:40.986Z,0.1
2016-04-20T10:07:50.989Z,0
2016-04-20T10:08:00.989Z,0.3
2016-04-20T10:08:10.989Z,0
2016-04-20T10:08:21.005Z,0
2016-04-20T10:08:31.005Z,0
2016-04-20T10:08:41.005Z,0
2016-04-20T10:08:51.008Z,0
2016-04-20T10:09:01.008Z,0
2016-04-20T10:09:11.008Z,0
2016-04-20T10:09:21.008Z,0
2016-04-20T10:09:31.023Z,0
2016-04-20T10:09:41.023Z,0.1
2016-04-20T10:09:51.026Z,0.3
2016-04-20T10:10:02.104Z,0.1
2016-04-20T10:10:11.026Z,0.1
2016-04-20T10:10:21.026Z,0.2
2016-04-20T10:10:31.026Z,0
2016-04-20T10:10:41.026Z,0
2016-04-20T10:10:51.029Z,0
2016-04-20T10:11:01.029Z,0
2016-04-20T10:11:11.029Z,0
2016-04-20T10:11:21.045Z,0.2
2016-04-20T10:11:31.092Z,0
2016-04-20T10:11:41.045Z,0
2016-04-20T10:11:51.047Z,0.2
2016-04-20T10:12:01.047Z,0.1
2016-04-20T10:12:11.062Z,0.1
2016-04-20T10:12:21.047Z,0
2016-04-20T10:12:31.062Z,0.1
2016-04-20T10:12:41.062Z,0.4
2016-04-20T10:12:51.081Z,0.2
2016-04-20T10:13:01.065Z,0.6
2016-04-20T10:13:11.065Z,0.4
2016-04-20T10:13:21.065Z,0.1
2016-04-20T10:13:31.081Z,0
2016-04-20T10:13:41.065Z,0
2016-04-20T10:13:51.084Z,0
2016-04-20T10:14:01.068Z,0.1
2016-04-20T10:14:11.084Z,0.2
2016-04-20T10:14:21.084Z,0
2016-04-20T10:14:31.084Z,0
2016-04-20T10:14:41.084Z,0.1
2016-04-20T10:14:51.103Z,0
2016-04-20T10:15:01.103Z,0.1
2016-04-20T10:15:11.087Z,0
2016-04-20T10:15:21.228Z,0
2016-04-20T10:15:31.103Z,0
2016-04-20T10:15:41.103Z,0
2016-04-20T10:15:51.105Z,0.1
2016-04-20T10:16:01.105Z,0
2016-04-20T10:16:10.948Z,0.2
2016-04-20T10:16:21.120Z,0.3
2016-04-20T10:16:31.105Z,0.4
2016-04-20T10:16:41.105Z,0.4
2016-04-20T10:16:51.123Z,0.4
2016-04-20T10:17:01.123Z,0.5
2016-04-20T10:17:11.123Z,1.1
2016-04-20T10:17:21.123Z,0.9
2016-04-20T10:17:31.123Z,0.8
2016-04-20T10:17:41.139Z,0.6
2016-04-20T10:17:51.142Z,0.2
2016-04-20T10:17:59.626Z,0.3
2016-04-20T10:18:11.142Z,0.3
2016-04-20T10:18:21.158Z,0.4
2016-04-20T10:18:30.392Z,0.1
2016-04-20T10:18:41.142Z,0
2016-04-20T10:18:51.175Z,0
2016-04-20T10:19:01.160Z,0
2016-04-20T10:19:11.160Z,0
2016-04-20T10:19:21.175Z,0
2016-04-20T10:19:31.581Z,0
2016-04-20T10:19:41.175Z,0
2016-04-20T10:19:51.178Z,0.1
2016-04-20T10:20:01.381Z,0.3
2016-04-20T10:20:11.178Z,0.4
2016-04-20T10:20:21.163Z,0.3
2016-04-20T10:20:31.163Z,0.2
2016-04-20T10:20:41.163Z,0.1
2016-04-20T10:20:51.166Z,0
2016-04-20T10:21:01.166Z,0
2016-04-20T10:21:11.166Z,0
2016-04-20T10:21:21.181Z,0
2016-04-20T10:21:31.197Z,0
2016-04-20T10:21:41.181Z,0
2016-04-20T10:21:51.183Z,0
2016-04-20T10:22:01.199Z,0.2
2016-04-20T10:22:11.183Z,0.3
2016-04-20T10:22:21.183Z,0.3
2016-04-20T10:22:31.199Z,0.6
2016-04-20T10:22:41.199Z,0.3
2016-04-20T10:22:51.202Z,0.2
2016-04-20T10:23:01.202Z,0.5
2016-04-20T10:23:11.202Z,0.5
2016-04-20T10:23:21.202Z,0.9
2016-04-20T10:23:31.202Z,0.6
2016-04-20T10:23:41.202Z,0.4
2016-04-20T10:23:51.205Z,0.2
2016-04-20T10:24:01.205Z,0
2016-04-20T10:24:11.205Z,0.2
2016-04-20T10:24:21.220Z,0
2016-04-20T10:24:31.220Z,0
2016-04-20T10:24:41.205Z,0
2016-04-20T10:24:51.222Z,0
2016-04-20T10:25:01.222Z,0
2016-04-20T10:25:11.222Z,0
2016-04-20T10:25:21.222Z,0
2016-04-20T10:25:31.222Z,0
2016-04-20T10:25:41.222Z,0
2016-04-20T10:25:50.475Z,0
2016-04-20T10:26:01.225Z,0
2016-04-20T10:26:11.241Z,0
2016-04-20T10:26:21.241Z,0
2016-04-20T10:26:31.241Z,0
2016-04-20T10:26:41.241Z,0
2016-04-20T10:26:51.243Z,0
2016-04-20T10:27:01.243Z,0
2016-04-20T10:27:11.259Z,0
2016-04-20T10:27:21.259Z,0
2016-04-20T10:27:31.274Z,0
2016-04-20T10:27:41.243Z,0
2016-04-20T10:27:51.246Z,0
2016-04-20T10:28:01.262Z,0
2016-04-20T10:28:11.262Z,0
2016-04-20T10:28:20.512Z,0
2016-04-20T10:28:31.262Z,0
2016-04-20T10:28:41.262Z,0
2016-04-20T10:28:51.280Z,0
2016-04-20T10:29:01.265Z,0
2016-04-20T10:29:11.280Z,0
2016-04-20T10:29:21.280Z,0
2016-04-20T10:29:31.280Z,0
2016-04-20T10:29:41.265Z,0
2016-04-20T10:29:51.283Z,0
2016-04-20T10:30:01.283Z,0.1
2016-04-20T10:30:11.283Z,0
2016-04-20T10:30:21.299Z,0
2016-04-20T10:30:31.283Z,0
2016-04-20T10:30:41.283Z,0
2016-04-20T10:30:51.301Z,0
2016-04-20T10:31:01.317Z,0
2016-04-20T10:31:11.301Z,0
2016-04-20T10:31:21.301Z,0
2016-04-20T10:31:31.301Z,0
2016-04-20T10:31:41.301Z,0
2016-04-20T10:31:51.320Z,0
2016-04-20T10:32:01.320Z,0
2016-04-20T10:32:11.304Z,0
2016-04-20T10:32:21.320Z,0
2016-04-20T10:32:31.320Z,0
2016-04-20T10:32:41.320Z,0
2016-04-20T10:32:51.323Z,0
2016-04-20T10:33:01.307Z,0
2016-04-20T10:33:11.323Z,0
2016-04-20T10:33:21.323Z,0
2016-04-20T10:33:31.323Z,0
2016-04-20T10:33:41.323Z,0.3
2016-04-20T10:33:51.341Z,0.1
2016-04-20T10:34:01.326Z,0.2
2016-04-20T10:34:11.341Z,0.1
2016-04-20T10:34:21.341Z,0
2016-04-20T10:34:31.357Z,0
2016-04-20T10:34:41.341Z,0.5
2016-04-20T10:34:51.344Z,0.3
2016-04-20T10:35:01.344Z,0.1
2016-04-20T10:35:11.297Z,0.1
2016-04-20T10:35:21.110Z,0
2016-04-20T10:35:31.407Z,0
2016-04-20T10:35:41.360Z,0
2016-04-20T10:35:51.362Z,0
2016-04-20T10:36:01.362Z,0
2016-04-20T10:36:11.362Z,0
2016-04-20T10:36:21.362Z,0
2016-04-20T10:36:31.362Z,0
2016-04-20T10:36:41.362Z,0.1
2016-04-20T10:36:51.379Z,0.1
2016-04-20T10:37:01.379Z,0
2016-04-20T10:37:11.379Z,0
2016-04-20T10:37:21.364Z,0
2016-04-20T10:37:31.379Z,0
2016-04-20T10:37:41.379Z,0
2016-04-20T10:37:51.929Z,0
2016-04-20T10:38:01.382Z,0.6
2016-04-20T10:38:11.398Z,0.2
2016-04-20T10:38:21.382Z,0.2
2016-04-20T10:38:31.398Z,0
2016-04-20T10:38:41.398Z,0.8
2016-04-20T10:38:51.401Z,1.1
2016-04-20T10:39:01.401Z,0.2
2016-04-20T10:39:11.417Z,0
2016-04-20T10:39:21.417Z,0
2016-04-20T10:39:31.417Z,0
2016-04-20T10:39:41.417Z,0
2016-04-20T10:39:51.450Z,0
2016-04-20T10:40:01.419Z,0
2016-04-20T10:40:11.419Z,0.1
2016-04-20T10:40:21.419Z,0
2016-04-20T10:40:31.419Z,0
2016-04-20T10:40:41.419Z,0
2016-04-20T10:40:51.423Z,0.1
2016-04-20T10:41:01.282Z,0
2016-04-20T10:41:11.423Z,0
2016-04-20T10:41:21.438Z,0
2016-04-20T10:41:31.438Z,0
2016-04-20T10:41:41.470Z,0.1
2016-04-20T10:41:51.440Z,0.2
2016-04-20T10:42:01.440Z,0.1
2016-04-20T10:42:11.440Z,0.1
2016-04-20T10:42:21.456Z,0.2
2016-04-20T10:42:31.440Z,0.3
2016-04-20T10:42:41.440Z,0.1
2016-04-20T10:42:51.459Z,0.3
2016-04-20T10:43:01.443Z,0.6
2016-04-20T10:43:11.443Z,0.4
2016-04-20T10:43:21.459Z,0.2
2016-04-20T10:43:31.475Z,0
2016-04-20T10:43:41.490Z,0
2016-04-20T10:43:51.477Z,0
2016-04-20T10:44:01.461Z,0
2016-04-20T10:44:11.477Z,0.1
2016-04-20T10:44:21.477Z,0
2016-04-20T10:44:31.477Z,0.1
2016-04-20T10:44:41.461Z,0.1
2016-04-20T10:44:51.480Z,0
2016-04-20T10:45:01.480Z,0
2016-04-20T10:45:11.480Z,0
2016-04-20T10:45:20.714Z,0
2016-04-20T10:45:31.480Z,0
2016-04-20T10:45:41.480Z,0
2016-04-20T10:45:51.483Z,0
2016-04-20T10:46:01.498Z,0
2016-04-20T10:46:11.498Z,0
2016-04-20T10:46:21.498Z,0
2016-04-20T10:46:31.498Z,0
2016-04-20T10:46:41.498Z,0
2016-04-20T10:46:50.748Z,0
2016-04-20T10:47:02.142Z,0
2016-04-20T10:47:11.564Z,0
2016-04-20T10:47:21.501Z,0
2016-04-20T10:47:31.501Z,0
2016-04-20T10:47:41.517Z,0
2016-04-20T10:47:51.503Z,0
2016-04-20T10:48:01.363Z,0
2016-04-20T10:48:11.519Z,0
2016-04-20T10:48:21.519Z,0
2016-04-20T10:48:31.519Z,0
2016-04-20T10:48:41.519Z,0
2016-04-20T10:48:51.522Z,0
2016-04-20T10:49:01.522Z,0
2016-04-20T10:49:11.522Z,0
2016-04-20T10:49:21.537Z,0
2016-04-20T10:49:31.537Z,0
2016-04-20T10:49:41.522Z,0
2016-04-20T10:49:51.539Z,0
2016-04-20T10:50:01.539Z,0
2016-04-20T10:50:11.477Z,0
2016-04-20T10:50:21.633Z,0
2016-04-20T10:50:31.539Z,0
2016-04-20T10:50:41.555Z,0
2016-04-20T10:50:51.558Z,0
2016-04-20T10:51:01.542Z,0
2016-04-20T10:51:11.558Z,0.1
2016-04-20T10:51:21.558Z,0
2016-04-20T10:51:31.558Z,0
2016-04-20T10:51:41.558Z,0
2016-04-20T10:51:51.670Z,0